VOZ617 YMML-KSFO
Flight info
| Callsign | VOZ617 |
|---|---|
| Flight time | N/A |
| Altitude | 29000 |
| Route | CORRS DCT RIKUS DCT OTKED DCT MOMSY DCT TONIM DCT 34S160E 33S163E 30S170E/N0495F310 DCT SAKLO DCT 26S180E 20S170W 15S165W/N0497F330 10S161W 05S158W 00N155W 05N152W 10N148W/N0489F350 15N144W DCT BALKS DCT 25N134W 30N129W/N0483F370 DCT CINNY PIRAT3 |
| Aircraft | B77W/H-SDE1E2E3FGHIJ2J3J4J5M1RWXY/LB1D1 |
Departure
| Time | 2026-05-04 03:16 |
|---|---|
| Airport | Melbourne Airport (YMML) |
Arrival
| Time | N/A |
|---|---|
| Airport | San Francisco International Airport (KSFO) |
| Time | Latitude | Longitude | Altitude | Speed | Heading |
|---|---|---|---|---|---|
| 2026-05-04 01:57 | -37.66750 | 144.84543 | 403 ft | 0 kts | 172° |
| 2026-05-04 03:01 | -37.66751 | 144.84543 | 402 ft | 0 kts | 172° |
| 2026-05-04 03:01 | -37.66750 | 144.84543 | 402 ft | 0 kts | 172° |
| 2026-05-04 03:02 | -37.66751 | 144.84543 | 402 ft | 0 kts | 172° |
| 2026-05-04 03:04 | -37.66736 | 144.84540 | 403 ft | 2 kts | 172° |
| 2026-05-04 03:04 | -37.66721 | 144.84537 | 403 ft | 2 kts | 174° |
| 2026-05-04 03:05 | -37.66704 | 144.84538 | 403 ft | 2 kts | 193° |
| 2026-05-04 03:05 | -37.66689 | 144.84544 | 403 ft | 2 kts | 207° |
| 2026-05-04 03:05 | -37.66675 | 144.84555 | 403 ft | 2 kts | 222° |
| 2026-05-04 03:05 | -37.66664 | 144.84570 | 404 ft | 2 kts | 236° |
| 2026-05-04 03:06 | -37.66657 | 144.84589 | 404 ft | 2 kts | 250° |
| 2026-05-04 03:06 | -37.66653 | 144.84604 | 405 ft | 1 kts | 262° |
| 2026-05-04 03:06 | -37.66653 | 144.84605 | 405 ft | 0 kts | 262° |
| 2026-05-04 03:06 | -37.66654 | 144.84605 | 405 ft | 0 kts | 262° |
| 2026-05-04 03:08 | -37.66654 | 144.84602 | 404 ft | 2 kts | 262° |
| 2026-05-04 03:08 | -37.66659 | 144.84557 | 403 ft | 8 kts | 263° |
| 2026-05-04 03:08 | -37.66669 | 144.84467 | 402 ft | 10 kts | 262° |
| 2026-05-04 03:09 | -37.66680 | 144.84380 | 400 ft | 9 kts | 261° |
| 2026-05-04 03:09 | -37.66690 | 144.84299 | 399 ft | 9 kts | 262° |
| 2026-05-04 03:09 | -37.66705 | 144.84224 | 398 ft | 9 kts | 238° |
| 2026-05-04 03:09 | -37.66759 | 144.84192 | 397 ft | 11 kts | 180° |
| 2026-05-04 03:10 | -37.66834 | 144.84201 | 396 ft | 12 kts | 173° |
| 2026-05-04 03:10 | -37.66922 | 144.84218 | 394 ft | 13 kts | 171° |
| 2026-05-04 03:10 | -37.67008 | 144.84235 | 392 ft | 12 kts | 171° |
| 2026-05-04 03:10 | -37.67088 | 144.84248 | 391 ft | 13 kts | 172° |
| 2026-05-04 03:11 | -37.67175 | 144.84264 | 389 ft | 13 kts | 172° |
| 2026-05-04 03:11 | -37.67267 | 144.84282 | 387 ft | 14 kts | 171° |
| 2026-05-04 03:11 | -37.67373 | 144.84302 | 385 ft | 16 kts | 171° |
| 2026-05-04 03:11 | -37.67475 | 144.84320 | 383 ft | 16 kts | 172° |
| 2026-05-04 03:12 | -37.67585 | 144.84340 | 380 ft | 18 kts | 172° |
| 2026-05-04 03:12 | -37.67708 | 144.84363 | 375 ft | 19 kts | 171° |
| 2026-05-04 03:12 | -37.67840 | 144.84389 | 373 ft | 19 kts | 171° |
| 2026-05-04 03:12 | -37.67965 | 144.84410 | 368 ft | 19 kts | 172° |
| 2026-05-04 03:13 | -37.68090 | 144.84433 | 363 ft | 19 kts | 171° |
| 2026-05-04 03:13 | -37.68219 | 144.84457 | 358 ft | 19 kts | 171° |
| 2026-05-04 03:13 | -37.68335 | 144.84468 | 354 ft | 14 kts | 190° |
| 2026-05-04 03:13 | -37.68415 | 144.84412 | 352 ft | 14 kts | 213° |
| 2026-05-04 03:14 | -37.68498 | 144.84343 | 348 ft | 15 kts | 214° |
| 2026-05-04 03:14 | -37.68550 | 144.84245 | 346 ft | 13 kts | 259° |
| 2026-05-04 03:14 | -37.68560 | 144.84145 | 346 ft | 10 kts | 276° |
| 2026-05-04 03:14 | -37.68526 | 144.84090 | 347 ft | 6 kts | 343° |
| 2026-05-04 03:15 | -37.68503 | 144.84087 | 347 ft | 0 kts | 354° |
| 2026-05-04 03:15 | -37.68325 | 144.84056 | 354 ft | 53 kts | 351° |
| 2026-05-04 03:16 | -37.67796 | 144.83957 | 368 ft | 103 kts | 351° |
| 2026-05-04 03:16 | -37.66923 | 144.83794 | 395 ft | 147 kts | 351° |
| 2026-05-04 03:16 | -37.65778 | 144.83589 | 485 ft | 180 kts | 352° |
| 2026-05-04 03:16 | -37.64565 | 144.83395 | 1075 ft | 174 kts | 352° |
| 2026-05-04 03:17 | -37.63351 | 144.83173 | 1595 ft | 182 kts | 348° |
| 2026-05-04 03:17 | -37.62111 | 144.82877 | 1960 ft | 189 kts | 348° |
| 2026-05-04 03:17 | -37.60781 | 144.82568 | 2269 ft | 198 kts | 350° |
| 2026-05-04 03:17 | -37.59375 | 144.82408 | 2654 ft | 208 kts | 359° |
| 2026-05-04 03:18 | -37.57944 | 144.82756 | 2948 ft | 224 kts | 17° |
| 2026-05-04 03:18 | -37.56596 | 144.83691 | 3595 ft | 224 kts | 24° |
| 2026-05-04 03:18 | -37.55201 | 144.84665 | 4000 ft | 232 kts | 20° |
| 2026-05-04 03:18 | -37.53801 | 144.85542 | 4275 ft | 244 kts | 20° |
| 2026-05-04 03:19 | -37.52290 | 144.86470 | 4769 ft | 248 kts | 20° |
| 2026-05-04 03:19 | -37.50767 | 144.87402 | 5374 ft | 249 kts | 20° |
| 2026-05-04 03:19 | -37.49221 | 144.88348 | 5928 ft | 251 kts | 20° |
| 2026-05-04 03:19 | -37.47722 | 144.89304 | 6409 ft | 258 kts | 28° |
| 2026-05-04 03:20 | -37.46445 | 144.90836 | 6864 ft | 272 kts | 50° |
| 2026-05-04 03:20 | -37.45700 | 144.92918 | 7252 ft | 289 kts | 73° |
| 2026-05-04 03:20 | -37.45699 | 144.95471 | 7670 ft | 303 kts | 102° |
| 2026-05-04 03:20 | -37.46593 | 144.97769 | 8181 ft | 309 kts | 130° |
| 2026-05-04 03:21 | -37.48148 | 144.99347 | 8497 ft | 313 kts | 159° |
| 2026-05-04 03:21 | -37.50173 | 144.99974 | 8863 ft | 311 kts | 179° |
| 2026-05-04 03:21 | -37.52290 | 145.00159 | 9500 ft | 307 kts | 182° |
| 2026-05-04 03:21 | -37.54405 | 145.00305 | 10013 ft | 307 kts | 182° |
| 2026-05-04 03:22 | -37.56466 | 145.00444 | 10355 ft | 314 kts | 181° |
| 2026-05-04 03:22 | -37.58558 | 145.00584 | 10769 ft | 319 kts | 181° |
| 2026-05-04 03:22 | -37.60729 | 145.00728 | 10966 ft | 333 kts | 181° |
| 2026-05-04 03:22 | -37.63054 | 145.00882 | 11061 ft | 350 kts | 181° |
| 2026-05-04 03:23 | -37.65483 | 145.01086 | 11175 ft | 369 kts | 175° |
| 2026-05-04 03:23 | -37.68123 | 145.01880 | 11364 ft | 389 kts | 162° |
| 2026-05-04 03:23 | -37.70711 | 145.03409 | 11571 ft | 408 kts | 150° |
| 2026-05-04 03:23 | -37.73085 | 145.05624 | 11991 ft | 418 kts | 137° |
| 2026-05-04 03:24 | -37.75102 | 145.08437 | 12652 ft | 420 kts | 125° |
| 2026-05-04 03:24 | -37.76673 | 145.11762 | 13340 ft | 419 kts | 113° |
| 2026-05-04 03:24 | -37.77767 | 145.15442 | 14022 ft | 421 kts | 106° |
| 2026-05-04 03:24 | -37.78735 | 145.19066 | 14602 ft | 425 kts | 107° |
| 2026-05-04 03:25 | -37.79817 | 145.22818 | 15096 ft | 432 kts | 108° |
| 2026-05-04 03:25 | -37.80931 | 145.26457 | 15584 ft | 437 kts | 109° |
| 2026-05-04 03:25 | -37.82145 | 145.30272 | 16185 ft | 441 kts | 110° |
| 2026-05-04 03:25 | -37.83424 | 145.34198 | 16762 ft | 446 kts | 110° |
| 2026-05-04 03:26 | -37.84731 | 145.38148 | 17307 ft | 451 kts | 110° |
| 2026-05-04 03:26 | -37.86053 | 145.42105 | 17811 ft | 456 kts | 110° |
| 2026-05-04 03:26 | -37.87351 | 145.45962 | 18353 ft | 460 kts | 110° |
| 2026-05-04 03:26 | -37.88657 | 145.49835 | 18874 ft | 464 kts | 110° |
| 2026-05-04 03:27 | -37.89926 | 145.53586 | 19339 ft | 469 kts | 110° |
| 2026-05-04 03:27 | -37.91284 | 145.57600 | 19843 ft | 473 kts | 109° |
| 2026-05-04 03:27 | -37.92376 | 145.61755 | 20301 ft | 473 kts | 99° |
| 2026-05-04 03:27 | -37.92916 | 145.65892 | 20715 ft | 472 kts | 91° |
| 2026-05-04 03:28 | -37.93275 | 145.70053 | 21261 ft | 473 kts | 90° |
| 2026-05-04 03:28 | -37.93631 | 145.74352 | 21822 ft | 475 kts | 90° |
| 2026-05-04 03:28 | -37.93987 | 145.78697 | 22175 ft | 481 kts | 90° |
| 2026-05-04 03:28 | -37.94333 | 145.82935 | 22575 ft | 485 kts | 90° |
| 2026-05-04 03:29 | -37.94678 | 145.87158 | 23100 ft | 486 kts | 89° |
| 2026-05-04 03:29 | -37.95032 | 145.91525 | 23546 ft | 489 kts | 89° |
| 2026-05-04 03:29 | -37.95392 | 145.95987 | 23891 ft | 494 kts | 89° |
| 2026-05-04 03:29 | -37.95740 | 146.00316 | 24267 ft | 497 kts | 89° |
| 2026-05-04 03:30 | -37.96088 | 146.04671 | 24635 ft | 500 kts | 89° |
| 2026-05-04 03:30 | -37.96449 | 146.09196 | 25045 ft | 503 kts | 89° |
| 2026-05-04 03:30 | -37.96810 | 146.13757 | 25396 ft | 507 kts | 89° |
| 2026-05-04 03:30 | -37.97161 | 146.18211 | 25777 ft | 509 kts | 89° |
| 2026-05-04 03:31 | -37.97510 | 146.22656 | 26222 ft | 510 kts | 89° |
| 2026-05-04 03:31 | -37.97871 | 146.27266 | 26675 ft | 511 kts | 89° |
| 2026-05-04 03:31 | -37.98231 | 146.31918 | 26924 ft | 516 kts | 89° |
| 2026-05-04 03:31 | -37.98584 | 146.36497 | 27186 ft | 521 kts | 89° |
| 2026-05-04 03:32 | -37.98928 | 146.40961 | 27587 ft | 522 kts | 89° |
| 2026-05-04 03:32 | -37.99256 | 146.45239 | 28039 ft | 521 kts | 89° |
| 2026-05-04 03:32 | -37.99604 | 146.49797 | 28507 ft | 521 kts | 88° |
| 2026-05-04 03:32 | -37.99949 | 146.54344 | 28870 ft | 523 kts | 88° |
| 2026-05-04 03:33 | -38.00294 | 146.58934 | 28901 ft | 526 kts | 89° |
| 2026-05-04 03:33 | -38.00983 | 146.68123 | 28877 ft | 522 kts | 88° |
| 2026-05-04 03:34 | -38.01652 | 146.77176 | 28898 ft | 525 kts | 88° |
| 2026-05-04 03:34 | -38.02309 | 146.86595 | 28883 ft | 520 kts | 84° |
| 2026-05-04 03:35 | -38.01673 | 146.95595 | 28886 ft | 501 kts | 72° |
| 2026-05-04 03:35 | -38.00435 | 147.04547 | 28893 ft | 508 kts | 72° |
| 2026-05-04 03:36 | -37.99208 | 147.13318 | 28904 ft | 502 kts | 72° |
| 2026-05-04 03:36 | -37.97937 | 147.22290 | 28904 ft | 506 kts | 71° |
| 2026-05-04 03:37 | -37.96701 | 147.30983 | 28904 ft | 501 kts | 71° |
| 2026-05-04 03:37 | -37.95408 | 147.39990 | 28916 ft | 507 kts | 72° |
| 2026-05-04 03:38 | -37.94141 | 147.48778 | 28917 ft | 504 kts | 72° |
| 2026-05-04 03:38 | -37.92842 | 147.57735 | 28924 ft | 505 kts | 72° |
| 2026-05-04 03:39 | -37.91575 | 147.66429 | 28919 ft | 501 kts | 71° |
| 2026-05-04 03:39 | -37.90282 | 147.75241 | 28908 ft | 503 kts | 71° |
| 2026-05-04 03:40 | -37.88985 | 147.84041 | 28914 ft | 502 kts | 71° |
| 2026-05-04 03:40 | -37.87668 | 147.92923 | 28914 ft | 501 kts | 71° |
| 2026-05-04 03:41 | -37.86356 | 148.01721 | 28912 ft | 504 kts | 71° |
| 2026-05-04 03:41 | -37.85034 | 148.10555 | 28901 ft | 499 kts | 71° |
| 2026-05-04 03:42 | -37.83722 | 148.19246 | 28932 ft | 505 kts | 71° |
| 2026-05-04 03:42 | -37.82383 | 148.28102 | 28919 ft | 501 kts | 71° |
| 2026-05-04 03:43 | -37.81055 | 148.36815 | 28932 ft | 503 kts | 71° |
| 2026-05-04 03:43 | -37.79706 | 148.45638 | 28919 ft | 501 kts | 71° |
| 2026-05-04 03:44 | -37.78363 | 148.54359 | 28916 ft | 501 kts | 71° |
| 2026-05-04 03:44 | -37.77019 | 148.63046 | 28914 ft | 505 kts | 71° |
| 2026-05-04 03:45 | -37.75643 | 148.71915 | 28924 ft | 499 kts | 70° |
| 2026-05-04 03:45 | -37.74285 | 148.80594 | 28915 ft | 503 kts | 71° |
| 2026-05-04 03:46 | -37.72920 | 148.89300 | 28928 ft | 499 kts | 71° |
| 2026-05-04 03:46 | -37.71526 | 148.98112 | 28927 ft | 504 kts | 71° |
| 2026-05-04 03:47 | -37.70157 | 149.06760 | 28921 ft | 500 kts | 70° |
| 2026-05-04 03:47 | -37.68755 | 149.15547 | 28911 ft | 503 kts | 71° |
| 2026-05-04 03:48 | -37.67378 | 149.24149 | 28923 ft | 500 kts | 70° |
| 2026-05-04 03:48 | -37.65981 | 149.32831 | 28911 ft | 497 kts | 70° |
| 2026-05-04 03:49 | -37.64585 | 149.41446 | 28910 ft | 503 kts | 70° |
| 2026-05-04 03:49 | -37.63195 | 149.50005 | 28917 ft | 499 kts | 70° |
| 2026-05-04 03:50 | -37.61794 | 149.58578 | 28914 ft | 498 kts | 70° |
| 2026-05-04 03:50 | -37.60387 | 149.67152 | 28907 ft | 498 kts | 69° |
| 2026-05-04 03:51 | -37.59329 | 149.75807 | 28912 ft | 508 kts | 77° |
| 2026-05-04 03:51 | -37.58816 | 149.84773 | 28907 ft | 510 kts | 78° |
| 2026-05-04 03:52 | -37.58305 | 149.93593 | 28901 ft | 510 kts | 78° |
| 2026-05-04 03:52 | -37.57775 | 150.02507 | 28906 ft | 507 kts | 77° |
| 2026-05-04 03:53 | -37.57237 | 150.11336 | 28919 ft | 511 kts | 77° |
| 2026-05-04 03:53 | -37.56686 | 150.20290 | 28915 ft | 502 kts | 77° |
| 2026-05-04 03:54 | -37.56136 | 150.29033 | 28901 ft | 508 kts | 78° |
| 2026-05-04 03:54 | -37.55565 | 150.38014 | 28902 ft | 507 kts | 78° |
| 2026-05-04 03:55 | -37.55004 | 150.46756 | 28920 ft | 504 kts | 78° |
| 2026-05-04 03:55 | -37.53860 | 150.55399 | 28911 ft | 487 kts | 64° |
| 2026-05-04 03:56 | -37.51187 | 150.63188 | 28924 ft | 492 kts | 57° |
| 2026-05-04 03:56 | -37.48455 | 150.70438 | 28905 ft | 505 kts | 57° |
| 2026-05-04 03:57 | -37.45613 | 150.77966 | 28908 ft | 516 kts | 57° |
| 2026-05-04 03:57 | -37.42609 | 150.85916 | 28919 ft | 516 kts | 57° |
| 2026-05-04 03:58 | -37.38136 | 150.97719 | 28913 ft | 517 kts | 57° |
| 2026-05-04 03:58 | -37.35077 | 151.05766 | 28918 ft | 514 kts | 58° |
| 2026-05-04 03:59 | -37.31995 | 151.13850 | 28922 ft | 517 kts | 58° |
| 2026-05-04 03:59 | -37.28914 | 151.21913 | 28926 ft | 514 kts | 58° |
| 2026-05-04 04:00 | -37.25819 | 151.29988 | 28923 ft | 516 kts | 58° |
| 2026-05-04 04:00 | -37.22788 | 151.37878 | 28929 ft | 516 kts | 58° |
| 2026-05-04 04:01 | -37.19679 | 151.45952 | 28937 ft | 514 kts | 58° |
| 2026-05-04 04:01 | -37.16589 | 151.53952 | 28923 ft | 516 kts | 58° |
| 2026-05-04 04:02 | -37.13472 | 151.62004 | 28934 ft | 516 kts | 58° |
| 2026-05-04 04:02 | -37.10368 | 151.70001 | 28937 ft | 518 kts | 58° |
| 2026-05-04 04:03 | -37.07250 | 151.78017 | 28930 ft | 517 kts | 58° |
| 2026-05-04 04:03 | -37.04147 | 151.85969 | 28929 ft | 516 kts | 58° |
| 2026-05-04 04:04 | -37.01018 | 151.93971 | 28948 ft | 515 kts | 58° |
| 2026-05-04 04:04 | -36.97897 | 152.01935 | 28947 ft | 514 kts | 58° |
| 2026-05-04 04:05 | -36.94764 | 152.09901 | 28934 ft | 518 kts | 58° |
| 2026-05-04 04:05 | -36.91606 | 152.17914 | 28954 ft | 517 kts | 58° |
| 2026-05-04 04:06 | -36.88400 | 152.26027 | 28971 ft | 520 kts | 58° |
| 2026-05-04 04:06 | -36.85225 | 152.34045 | 28963 ft | 519 kts | 58° |
| 2026-05-04 04:07 | -36.82055 | 152.42030 | 28980 ft | 518 kts | 58° |
| 2026-05-04 04:07 | -36.78878 | 152.50008 | 28979 ft | 522 kts | 58° |
| 2026-05-04 04:08 | -36.75689 | 152.57999 | 28975 ft | 522 kts | 59° |
| 2026-05-04 04:08 | -36.72491 | 152.65994 | 28993 ft | 522 kts | 58° |
| 2026-05-04 04:09 | -36.69299 | 152.73949 | 28988 ft | 524 kts | 58° |
| 2026-05-04 04:09 | -36.66064 | 152.81996 | 28987 ft | 524 kts | 58° |
| 2026-05-04 04:10 | -36.62857 | 152.89952 | 28966 ft | 522 kts | 58° |
| 2026-05-04 04:10 | -36.59630 | 152.97934 | 28994 ft | 524 kts | 58° |
| 2026-05-04 04:11 | -36.56380 | 153.05955 | 28999 ft | 525 kts | 58° |
| 2026-05-04 04:11 | -36.53120 | 153.13983 | 29008 ft | 528 kts | 58° |
| 2026-05-04 04:12 | -36.49844 | 153.22029 | 28995 ft | 528 kts | 58° |
| 2026-05-04 04:12 | -36.46558 | 153.30083 | 29006 ft | 528 kts | 58° |
| 2026-05-04 04:13 | -36.43275 | 153.38107 | 29005 ft | 528 kts | 58° |
| 2026-05-04 04:13 | -36.39961 | 153.46190 | 28995 ft | 530 kts | 59° |
| 2026-05-04 04:14 | -36.36669 | 153.54193 | 29015 ft | 532 kts | 59° |
| 2026-05-04 04:14 | -36.33313 | 153.62335 | 29033 ft | 537 kts | 59° |
| 2026-05-04 04:15 | -36.29965 | 153.70441 | 29023 ft | 534 kts | 58° |
| 2026-05-04 04:15 | -36.26599 | 153.78564 | 29033 ft | 537 kts | 58° |
| 2026-05-04 04:16 | -36.23237 | 153.86664 | 29038 ft | 537 kts | 59° |
| 2026-05-04 04:16 | -36.19799 | 153.94920 | 29044 ft | 538 kts | 59° |
| 2026-05-04 04:17 | -36.16399 | 154.03069 | 29051 ft | 536 kts | 59° |
| 2026-05-04 04:17 | -36.12981 | 154.11241 | 29045 ft | 535 kts | 59° |
| 2026-05-04 04:18 | -36.09595 | 154.19315 | 29049 ft | 536 kts | 59° |
| 2026-05-04 04:18 | -36.06106 | 154.27614 | 29058 ft | 538 kts | 59° |
| 2026-05-04 04:19 | -36.02674 | 154.35767 | 29052 ft | 538 kts | 60° |
| 2026-05-04 04:19 | -35.99780 | 154.44376 | 29059 ft | 543 kts | 65° |
| 2026-05-04 04:20 | -35.97019 | 154.52994 | 29066 ft | 544 kts | 65° |
| 2026-05-04 04:20 | -35.94186 | 154.61713 | 29074 ft | 543 kts | 65° |
| 2026-05-04 04:21 | -35.91360 | 154.70323 | 29058 ft | 542 kts | 64° |
| 2026-05-04 04:21 | -35.88471 | 154.79069 | 29063 ft | 539 kts | 64° |
| 2026-05-04 04:22 | -35.85624 | 154.87642 | 29086 ft | 543 kts | 64° |
| 2026-05-04 04:22 | -35.82765 | 154.96219 | 29071 ft | 539 kts | 64° |
| 2026-05-04 04:23 | -35.79932 | 155.04689 | 29074 ft | 539 kts | 64° |
| 2026-05-04 04:23 | -35.77256 | 155.12662 | 29091 ft | 543 kts | 64° |
| 2026-05-04 04:24 | -35.74435 | 155.21045 | 29096 ft | 545 kts | 64° |
| 2026-05-04 04:24 | -35.71476 | 155.29811 | 29095 ft | 542 kts | 64° |
| 2026-05-04 04:25 | -35.68594 | 155.38324 | 29101 ft | 546 kts | 64° |
| 2026-05-04 04:25 | -35.65648 | 155.47003 | 29101 ft | 546 kts | 64° |
| 2026-05-04 04:26 | -35.62725 | 155.55588 | 29109 ft | 547 kts | 64° |
| 2026-05-04 04:26 | -35.59759 | 155.64275 | 29103 ft | 548 kts | 64° |
| 2026-05-04 04:27 | -35.56800 | 155.72916 | 29112 ft | 551 kts | 63° |
| 2026-05-04 04:27 | -35.53809 | 155.81628 | 29114 ft | 550 kts | 63° |